sensor_id;sensor_type;location;lat;lon;timestamp;P1;durP1;ratioP1;P2;durP2;ratioP2
13295;SDS011;6716;51.086;-0.302;2022-10-26T00:00:47;2.67;;;1.35;;
13295;SDS011;6716;51.086;-0.302;2022-10-26T00:03:13;4.88;;;1.60;;
13295;SDS011;6716;51.086;-0.302;2022-10-26T00:05:40;3.63;;;1.70;;
13295;SDS011;6716;51.086;-0.302;2022-10-26T00:08:06;6.40;;;1.90;;
13295;SDS011;6716;51.086;-0.302;2022-10-26T00:10:33;4.25;;;1.67;;
13295;SDS011;6716;51.086;-0.302;2022-10-26T00:13:00;7.97;;;1.67;;
13295;SDS011;6716;51.086;-0.302;2022-10-26T00:15:26;5.38;;;1.70;;
13295;SDS011;6716;51.086;-0.302;2022-10-26T00:17:52;3.40;;;1.40;;
13295;SDS011;6716;51.086;-0.302;2022-10-26T00:20:18;6.80;;;1.95;;
13295;SDS011;6716;51.086;-0.302;2022-10-26T00:22:44;6.72;;;1.80;;
13295;SDS011;6716;51.086;-0.302;2022-10-26T00:25:10;6.63;;;2.13;;
13295;SDS011;6716;51.086;-0.302;2022-10-26T00:27:36;9.98;;;2.47;;
13295;SDS011;6716;51.086;-0.302;2022-10-26T00:30:03;7.65;;;2.20;;
13295;SDS011;6716;51.086;-0.302;2022-10-26T00:32:29;10.43;;;3.00;;
13295;SDS011;6716;51.086;-0.302;2022-10-26T00:34:56;9.35;;;3.50;;
13295;SDS011;6716;51.086;-0.302;2022-10-26T00:37:22;7.43;;;3.72;;
13295;SDS011;6716;51.086;-0.302;2022-10-26T00:39:48;11.30;;;4.45;;
13295;SDS011;6716;51.086;-0.302;2022-10-26T00:42:18;10.13;;;4.20;;
13295;SDS011;6716;51.086;-0.302;2022-10-26T00:49:46;12.02;;;4.70;;
13295;SDS011;6716;51.086;-0.302;2022-10-26T00:52:14;10.77;;;5.13;;
13295;SDS011;6716;51.086;-0.302;2022-10-26T00:54:41;8.70;;;5.97;;
13295;SDS011;6716;51.086;-0.302;2022-10-26T00:57:08;13.35;;;5.93;;
13295;SDS011;6716;51.086;-0.302;2022-10-26T00:59:34;12.88;;;7.25;;
13295;SDS011;6716;51.086;-0.302;2022-10-26T01:02:00;11.55;;;7.00;;
13295;SDS011;6716;51.086;-0.302;2022-10-26T01:04:26;13.43;;;7.63;;
13295;SDS011;6716;51.086;-0.302;2022-10-26T01:06:52;17.83;;;11.23;;
13295;SDS011;6716;51.086;-0.302;2022-10-26T01:09:18;15.50;;;8.73;;
13295;SDS011;6716;51.086;-0.302;2022-10-26T01:11:45;13.88;;;7.03;;
13295;SDS011;6716;51.086;-0.302;2022-10-26T01:14:11;10.50;;;7.55;;
13295;SDS011;6716;51.086;-0.302;2022-10-26T01:22:25;175.82;;;20.27;;
13295;SDS011;6716;51.086;-0.302;2022-10-26T01:27:30;19.95;;;13.52;;
13295;SDS011;6716;51.086;-0.302;2022-10-26T01:41:11;414.33;;;26.45;;
13295;SDS011;6716;51.086;-0.302;2022-10-26T01:43:54;341.85;;;28.58;;
13295;SDS011;6716;51.086;-0.302;2022-10-26T01:46:27;313.38;;;23.33;;
13295;SDS011;6716;51.086;-0.302;2022-10-26T01:49:09;677.55;;;39.10;;
13295;SDS011;6716;51.086;-0.302;2022-10-26T01:51:40;250.77;;;23.08;;
13295;SDS011;6716;51.086;-0.302;2022-10-26T01:54:08;359.88;;;30.38;;
13295;SDS011;6716;51.086;-0.302;2022-10-26T01:56:38;111.60;;;20.05;;
13295;SDS011;6716;51.086;-0.302;2022-10-26T01:59:15;277.15;;;32.10;;
13295;SDS011;6716;51.086;-0.302;2022-10-26T02:02:06;15.65;;;9.95;;
13295;SDS011;6716;51.086;-0.302;2022-10-26T02:05:14;13.05;;;8.52;;
13295;SDS011;6716;51.086;-0.302;2022-10-26T02:13:37;17.02;;;7.63;;
13295;SDS011;6716;51.086;-0.302;2022-10-26T02:16:13;18.52;;;7.53;;
13295;SDS011;6716;51.086;-0.302;2022-10-26T02:21:14;14.40;;;6.57;;
13295;SDS011;6716;51.086;-0.302;2022-10-26T02:23:44;19.13;;;8.05;;
13295;SDS011;6716;51.086;-0.302;2022-10-26T02:26:11;15.13;;;7.63;;
13295;SDS011;6716;51.086;-0.302;2022-10-26T02:28:43;19.08;;;9.25;;
13295;SDS011;6716;51.086;-0.302;2022-10-26T02:31:12;19.20;;;9.10;;
13295;SDS011;6716;51.086;-0.302;2022-10-26T02:33:43;17.95;;;7.78;;
13295;SDS011;6716;51.086;-0.302;2022-10-26T02:36:16;17.73;;;8.80;;
13295;SDS011;6716;51.086;-0.302;2022-10-26T02:38:47;18.30;;;8.63;;
13295;SDS011;6716;51.086;-0.302;2022-10-26T02:41:15;18.30;;;8.15;;
13295;SDS011;6716;51.086;-0.302;2022-10-26T02:43:44;17.63;;;7.35;;
13295;SDS011;6716;51.086;-0.302;2022-10-26T02:46:16;11.18;;;6.05;;
13295;SDS011;6716;51.086;-0.302;2022-10-26T02:48:47;15.50;;;5.60;;
13295;SDS011;6716;51.086;-0.302;2022-10-26T02:51:24;16.55;;;5.05;;
13295;SDS011;6716;51.086;-0.302;2022-10-26T02:54:01;14.93;;;5.95;;
13295;SDS011;6716;51.086;-0.302;2022-10-26T02:56:31;13.30;;;5.63;;
13295;SDS011;6716;51.086;-0.302;2022-10-26T02:59:03;23.58;;;7.10;;
13295;SDS011;6716;51.086;-0.302;2022-10-26T03:01:31;20.77;;;6.53;;
13295;SDS011;6716;51.086;-0.302;2022-10-26T03:03:58;16.25;;;5.70;;
13295;SDS011;6716;51.086;-0.302;2022-10-26T03:06:25;16.42;;;6.00;;
13295;SDS011;6716;51.086;-0.302;2022-10-26T03:08:51;11.70;;;5.30;;
13295;SDS011;6716;51.086;-0.302;2022-10-26T03:11:17;12.60;;;5.10;;
13295;SDS011;6716;51.086;-0.302;2022-10-26T03:13:46;19.83;;;5.65;;
13295;SDS011;6716;51.086;-0.302;2022-10-26T03:16:11;17.48;;;5.38;;
13295;SDS011;6716;51.086;-0.302;2022-10-26T03:18:37;17.58;;;6.30;;
13295;SDS011;6716;51.086;-0.302;2022-10-26T03:21:03;16.92;;;5.30;;
13295;SDS011;6716;51.086;-0.302;2022-10-26T03:23:29;13.18;;;5.45;;
13295;SDS011;6716;51.086;-0.302;2022-10-26T03:25:56;12.98;;;5.25;;
13295;SDS011;6716;51.086;-0.302;2022-10-26T03:28:25;17.35;;;5.90;;
13295;SDS011;6716;51.086;-0.302;2022-10-26T03:30:51;23.05;;;6.90;;
13295;SDS011;6716;51.086;-0.302;2022-10-26T03:33:17;15.57;;;5.97;;
13295;SDS011;6716;51.086;-0.302;2022-10-26T03:35:43;20.88;;;7.68;;
13295;SDS011;6716;51.086;-0.302;2022-10-26T03:38:09;22.27;;;7.38;;
13295;SDS011;6716;51.086;-0.302;2022-10-26T03:40:35;16.67;;;7.15;;
13295;SDS011;6716;51.086;-0.302;2022-10-26T03:43:01;19.92;;;8.02;;
13295;SDS011;6716;51.086;-0.302;2022-10-26T03:45:27;18.02;;;8.05;;
13295;SDS011;6716;51.086;-0.302;2022-10-26T03:47:56;17.02;;;7.32;;
13295;SDS011;6716;51.086;-0.302;2022-10-26T03:50:22;22.52;;;8.40;;
13295;SDS011;6716;51.086;-0.302;2022-10-26T03:52:48;23.73;;;7.97;;
13295;SDS011;6716;51.086;-0.302;2022-10-26T03:55:14;22.55;;;8.30;;
13295;SDS011;6716;51.086;-0.302;2022-10-26T03:57:41;23.92;;;8.82;;
13295;SDS011;6716;51.086;-0.302;2022-10-26T04:00:09;24.20;;;9.88;;
13295;SDS011;6716;51.086;-0.302;2022-10-26T04:02:42;20.67;;;8.57;;
13295;SDS011;6716;51.086;-0.302;2022-10-26T04:05:12;18.23;;;8.93;;
13295;SDS011;6716;51.086;-0.302;2022-10-26T04:07:40;21.58;;;8.75;;
13295;SDS011;6716;51.086;-0.302;2022-10-26T04:10:07;18.70;;;8.55;;
13295;SDS011;6716;51.086;-0.302;2022-10-26T04:12:37;23.55;;;8.65;;
13295;SDS011;6716;51.086;-0.302;2022-10-26T04:15:03;27.38;;;8.45;;
13295;SDS011;6716;51.086;-0.302;2022-10-26T04:17:31;22.20;;;7.63;;
13295;SDS011;6716;51.086;-0.302;2022-10-26T04:19:57;18.58;;;7.18;;
13295;SDS011;6716;51.086;-0.302;2022-10-26T04:22:28;21.92;;;6.90;;
13295;SDS011;6716;51.086;-0.302;2022-10-26T04:24:54;19.95;;;6.15;;
13295;SDS011;6716;51.086;-0.302;2022-10-26T04:27:20;22.90;;;6.78;;
13295;SDS011;6716;51.086;-0.302;2022-10-26T04:29:46;18.70;;;5.95;;
13295;SDS011;6716;51.086;-0.302;2022-10-26T04:32:12;17.05;;;5.25;;
13295;SDS011;6716;51.086;-0.302;2022-10-26T04:34:38;17.40;;;5.82;;
13295;SDS011;6716;51.086;-0.302;2022-10-26T04:37:04;19.55;;;5.88;;
13295;SDS011;6716;51.086;-0.302;2022-10-26T04:39:30;18.35;;;5.45;;
13295;SDS011;6716;51.086;-0.302;2022-10-26T04:41:56;13.82;;;5.05;;
13295;SDS011;6716;51.086;-0.302;2022-10-26T04:44:24;22.45;;;5.20;;
13295;SDS011;6716;51.086;-0.302;2022-10-26T04:46:50;13.27;;;4.60;;
13295;SDS011;6716;51.086;-0.302;2022-10-26T04:49:16;18.40;;;5.40;;
13295;SDS011;6716;51.086;-0.302;2022-10-26T04:51:42;25.70;;;5.50;;
13295;SDS011;6716;51.086;-0.302;2022-10-26T04:54:08;18.10;;;5.55;;
13295;SDS011;6716;51.086;-0.302;2022-10-26T04:56:34;22.25;;;5.55;;
13295;SDS011;6716;51.086;-0.302;2022-10-26T04:59:00;18.40;;;4.97;;
13295;SDS011;6716;51.086;-0.302;2022-10-26T05:01:26;24.17;;;5.32;;
13295;SDS011;6716;51.086;-0.302;2022-10-26T05:03:52;13.77;;;4.57;;
13295;SDS011;6716;51.086;-0.302;2022-10-26T05:06:19;20.73;;;4.70;;
13295;SDS011;6716;51.086;-0.302;2022-10-26T05:08:45;19.42;;;4.97;;
13295;SDS011;6716;51.086;-0.302;2022-10-26T05:11:11;21.67;;;4.75;;
13295;SDS011;6716;51.086;-0.302;2022-10-26T05:13:37;17.70;;;5.07;;
13295;SDS011;6716;51.086;-0.302;2022-10-26T05:16:03;15.02;;;4.00;;
13295;SDS011;6716;51.086;-0.302;2022-10-26T05:18:29;16.88;;;4.57;;
13295;SDS011;6716;51.086;-0.302;2022-10-26T05:20:55;13.70;;;3.92;;
13295;SDS011;6716;51.086;-0.302;2022-10-26T05:23:21;22.52;;;5.63;;
13295;SDS011;6716;51.086;-0.302;2022-10-26T05:25:50;14.68;;;4.65;;
13295;SDS011;6716;51.086;-0.302;2022-10-26T05:28:16;18.15;;;5.00;;
13295;SDS011;6716;51.086;-0.302;2022-10-26T05:30:43;19.17;;;4.28;;
13295;SDS011;6716;51.086;-0.302;2022-10-26T05:33:10;18.48;;;4.80;;
13295;SDS011;6716;51.086;-0.302;2022-10-26T05:35:37;18.65;;;4.40;;
13295;SDS011;6716;51.086;-0.302;2022-10-26T05:38:11;21.42;;;5.05;;
13295;SDS011;6716;51.086;-0.302;2022-10-26T05:40:47;16.20;;;4.63;;
13295;SDS011;6716;51.086;-0.302;2022-10-26T05:43:18;21.40;;;5.03;;
13295;SDS011;6716;51.086;-0.302;2022-10-26T05:45:45;24.88;;;5.90;;
13295;SDS011;6716;51.086;-0.302;2022-10-26T05:48:13;22.38;;;5.40;;
13295;SDS011;6716;51.086;-0.302;2022-10-26T05:50:39;16.80;;;4.80;;
13295;SDS011;6716;51.086;-0.302;2022-10-26T05:53:05;24.42;;;6.22;;
13295;SDS011;6716;51.086;-0.302;2022-10-26T05:55:31;21.75;;;6.22;;
13295;SDS011;6716;51.086;-0.302;2022-10-26T05:57:57;22.55;;;5.60;;
13295;SDS011;6716;51.086;-0.302;2022-10-26T06:00:25;28.05;;;6.47;;
13295;SDS011;6716;51.086;-0.302;2022-10-26T06:08:17;23.67;;;5.32;;
13295;SDS011;6716;51.086;-0.302;2022-10-26T06:10:45;20.77;;;5.50;;
13295;SDS011;6716;51.086;-0.302;2022-10-26T06:13:12;20.75;;;4.70;;
13295;SDS011;6716;51.086;-0.302;2022-10-26T06:16:00;28.15;;;5.30;;
13295;SDS011;6716;51.086;-0.302;2022-10-26T06:21:28;20.73;;;5.80;;
13295;SDS011;6716;51.086;-0.302;2022-10-26T06:29:56;25.95;;;5.05;;
13295;SDS011;6716;51.086;-0.302;2022-10-26T06:32:31;17.92;;;5.13;;
13295;SDS011;6716;51.086;-0.302;2022-10-26T06:35:01;24.17;;;5.65;;
13295;SDS011;6716;51.086;-0.302;2022-10-26T06:37:49;22.05;;;4.70;;
13295;SDS011;6716;51.086;-0.302;2022-10-26T06:40:17;19.90;;;5.40;;
13295;SDS011;6716;51.086;-0.302;2022-10-26T06:42:43;21.90;;;4.65;;
13295;SDS011;6716;51.086;-0.302;2022-10-26T06:45:10;23.35;;;4.68;;
13295;SDS011;6716;51.086;-0.302;2022-10-26T06:55:44;19.25;;;5.22;;
13295;SDS011;6716;51.086;-0.302;2022-10-26T06:58:13;26.08;;;6.05;;
13295;SDS011;6716;51.086;-0.302;2022-10-26T07:00:44;16.70;;;5.03;;
13295;SDS011;6716;51.086;-0.302;2022-10-26T07:03:15;19.27;;;5.22;;
13295;SDS011;6716;51.086;-0.302;2022-10-26T07:05:41;27.80;;;5.90;;
13295;SDS011;6716;51.086;-0.302;2022-10-26T07:08:08;20.58;;;5.47;;
13295;SDS011;6716;51.086;-0.302;2022-10-26T07:10:35;19.13;;;5.00;;
13295;SDS011;6716;51.086;-0.302;2022-10-26T07:13:03;20.67;;;5.03;;
13295;SDS011;6716;51.086;-0.302;2022-10-26T07:15:33;27.75;;;6.13;;
13295;SDS011;6716;51.086;-0.302;2022-10-26T07:17:59;23.48;;;5.63;;
13295;SDS011;6716;51.086;-0.302;2022-10-26T07:20:27;23.98;;;5.32;;
13295;SDS011;6716;51.086;-0.302;2022-10-26T07:22:53;23.50;;;4.93;;
13295;SDS011;6716;51.086;-0.302;2022-10-26T07:25:20;20.30;;;5.20;;
13295;SDS011;6716;51.086;-0.302;2022-10-26T07:27:47;14.30;;;5.60;;
13295;SDS011;6716;51.086;-0.302;2022-10-26T07:30:13;22.15;;;5.60;;
13295;SDS011;6716;51.086;-0.302;2022-10-26T07:32:39;30.42;;;6.13;;
13295;SDS011;6716;51.086;-0.302;2022-10-26T07:35:05;23.27;;;4.90;;
13295;SDS011;6716;51.086;-0.302;2022-10-26T07:37:31;26.65;;;5.53;;
13295;SDS011;6716;51.086;-0.302;2022-10-26T07:39:57;21.55;;;5.13;;
13295;SDS011;6716;51.086;-0.302;2022-10-26T07:42:23;21.35;;;5.70;;
13295;SDS011;6716;51.086;-0.302;2022-10-26T07:44:49;22.08;;;5.57;;
13295;SDS011;6716;51.086;-0.302;2022-10-26T07:47:15;29.80;;;6.05;;
13295;SDS011;6716;51.086;-0.302;2022-10-26T07:49:41;29.02;;;6.22;;
13295;SDS011;6716;51.086;-0.302;2022-10-26T07:52:08;30.05;;;6.25;;
13295;SDS011;6716;51.086;-0.302;2022-10-26T07:54:34;27.48;;;6.20;;
13295;SDS011;6716;51.086;-0.302;2022-10-26T07:57:00;24.73;;;5.43;;
13295;SDS011;6716;51.086;-0.302;2022-10-26T07:59:30;27.30;;;6.60;;
13295;SDS011;6716;51.086;-0.302;2022-10-26T08:01:56;22.50;;;5.70;;
13295;SDS011;6716;51.086;-0.302;2022-10-26T08:04:22;29.30;;;7.00;;
13295;SDS011;6716;51.086;-0.302;2022-10-26T08:06:47;24.08;;;6.82;;
13295;SDS011;6716;51.086;-0.302;2022-10-26T08:09:13;25.98;;;6.80;;
13295;SDS011;6716;51.086;-0.302;2022-10-26T08:11:39;26.73;;;6.90;;
13295;SDS011;6716;51.086;-0.302;2022-10-26T08:14:05;22.02;;;6.75;;
13295;SDS011;6716;51.086;-0.302;2022-10-26T08:16:31;25.83;;;6.15;;
13295;SDS011;6716;51.086;-0.302;2022-10-26T08:18:59;25.45;;;6.63;;
13295;SDS011;6716;51.086;-0.302;2022-10-26T08:21:24;27.77;;;7.43;;
13295;SDS011;6716;51.086;-0.302;2022-10-26T08:23:50;28.85;;;6.80;;
13295;SDS011;6716;51.086;-0.302;2022-10-26T08:26:16;23.40;;;6.90;;
13295;SDS011;6716;51.086;-0.302;2022-10-26T08:28:42;26.80;;;6.47;;
13295;SDS011;6716;51.086;-0.302;2022-10-26T08:31:08;24.25;;;6.38;;
13295;SDS011;6716;51.086;-0.302;2022-10-26T08:33:34;24.00;;;6.78;;
13295;SDS011;6716;51.086;-0.302;2022-10-26T08:36:01;27.55;;;6.90;;
13295;SDS011;6716;51.086;-0.302;2022-10-26T08:38:28;24.58;;;6.85;;
13295;SDS011;6716;51.086;-0.302;2022-10-26T08:40:55;28.55;;;6.75;;
13295;SDS011;6716;51.086;-0.302;2022-10-26T08:48:24;27.73;;;7.28;;
13295;SDS011;6716;51.086;-0.302;2022-10-26T08:51:00;28.98;;;6.72;;
13295;SDS011;6716;51.086;-0.302;2022-10-26T08:56:17;22.98;;;6.90;;
13295;SDS011;6716;51.086;-0.302;2022-10-26T08:58:51;33.40;;;8.05;;
13295;SDS011;6716;51.086;-0.302;2022-10-26T09:01:23;24.88;;;7.32;;
13295;SDS011;6716;51.086;-0.302;2022-10-26T09:03:49;20.77;;;6.15;;
13295;SDS011;6716;51.086;-0.302;2022-10-26T09:06:18;27.27;;;6.63;;
13295;SDS011;6716;51.086;-0.302;2022-10-26T09:08:59;24.98;;;6.53;;
13295;SDS011;6716;51.086;-0.302;2022-10-26T09:14:35;22.40;;;7.13;;
13295;SDS011;6716;51.086;-0.302;2022-10-26T09:25:17;27.65;;;7.10;;
13295;SDS011;6716;51.086;-0.302;2022-10-26T09:27:53;30.95;;;8.32;;
13295;SDS011;6716;51.086;-0.302;2022-10-26T09:30:22;25.58;;;7.38;;
13295;SDS011;6716;51.086;-0.302;2022-10-26T09:32:49;24.75;;;7.30;;
13295;SDS011;6716;51.086;-0.302;2022-10-26T09:35:21;21.75;;;7.32;;
13295;SDS011;6716;51.086;-0.302;2022-10-26T09:38:07;30.48;;;8.60;;
13295;SDS011;6716;51.086;-0.302;2022-10-26T09:40:41;29.10;;;7.15;;
13295;SDS011;6716;51.086;-0.302;2022-10-26T09:46:12;26.63;;;7.95;;
13295;SDS011;6716;51.086;-0.302;2022-10-26T09:48:50;23.77;;;7.00;;
13295;SDS011;6716;51.086;-0.302;2022-10-26T09:51:20;30.88;;;6.63;;
13295;SDS011;6716;51.086;-0.302;2022-10-26T09:53:51;22.17;;;7.50;;
13295;SDS011;6716;51.086;-0.302;2022-10-26T09:56:20;33.30;;;8.85;;
13295;SDS011;6716;51.086;-0.302;2022-10-26T09:58:48;33.13;;;8.90;;
13295;SDS011;6716;51.086;-0.302;2022-10-26T10:06:38;28.40;;;8.15;;
13295;SDS011;6716;51.086;-0.302;2022-10-26T10:09:21;22.17;;;7.57;;
13295;SDS011;6716;51.086;-0.302;2022-10-26T10:14:22;27.48;;;7.85;;
13295;SDS011;6716;51.086;-0.302;2022-10-26T10:16:53;29.60;;;8.80;;
13295;SDS011;6716;51.086;-0.302;2022-10-26T10:19:22;27.30;;;7.57;;
13295;SDS011;6716;51.086;-0.302;2022-10-26T10:21:59;28.08;;;8.23;;
13295;SDS011;6716;51.086;-0.302;2022-10-26T10:24:33;29.35;;;8.50;;
13295;SDS011;6716;51.086;-0.302;2022-10-26T10:29:38;21.90;;;7.70;;
13295;SDS011;6716;51.086;-0.302;2022-10-26T10:32:10;25.52;;;7.80;;
13295;SDS011;6716;51.086;-0.302;2022-10-26T10:34:40;22.23;;;8.25;;
13295;SDS011;6716;51.086;-0.302;2022-10-26T10:37:12;30.75;;;8.05;;
13295;SDS011;6716;51.086;-0.302;2022-10-26T10:40:16;26.08;;;7.72;;
13295;SDS011;6716;51.086;-0.302;2022-10-26T10:42:47;24.30;;;7.70;;
13295;SDS011;6716;51.086;-0.302;2022-10-26T10:45:22;24.75;;;6.78;;
13295;SDS011;6716;51.086;-0.302;2022-10-26T10:50:38;27.75;;;6.85;;
13295;SDS011;6716;51.086;-0.302;2022-10-26T10:55:55;21.27;;;6.80;;
13295;SDS011;6716;51.086;-0.302;2022-10-26T11:00:59;19.27;;;6.35;;
13295;SDS011;6716;51.086;-0.302;2022-10-26T11:03:41;23.65;;;7.18;;
13295;SDS011;6716;51.086;-0.302;2022-10-26T11:06:29;22.88;;;6.25;;
13295;SDS011;6716;51.086;-0.302;2022-10-26T11:09:06;19.05;;;6.55;;
13295;SDS011;6716;51.086;-0.302;2022-10-26T11:11:43;24.25;;;6.95;;
13295;SDS011;6716;51.086;-0.302;2022-10-26T11:14:23;24.95;;;6.90;;
13295;SDS011;6716;51.086;-0.302;2022-10-26T11:17:14;19.70;;;5.80;;
13295;SDS011;6716;51.086;-0.302;2022-10-26T11:20:11;26.00;;;6.38;;
13295;SDS011;6716;51.086;-0.302;2022-10-26T11:22:52;20.45;;;6.47;;
13295;SDS011;6716;51.086;-0.302;2022-10-26T11:31:12;11.38;;;4.63;;
13295;SDS011;6716;51.086;-0.302;2022-10-26T11:33:46;21.70;;;5.28;;
13295;SDS011;6716;51.086;-0.302;2022-10-26T11:36:21;19.65;;;4.75;;
13295;SDS011;6716;51.086;-0.302;2022-10-26T11:38:52;12.77;;;4.93;;
13295;SDS011;6716;51.086;-0.302;2022-10-26T11:41:56;18.02;;;4.40;;
13295;SDS011;6716;51.086;-0.302;2022-10-26T11:46:58;20.80;;;4.68;;
13295;SDS011;6716;51.086;-0.302;2022-10-26T11:52:34;20.15;;;4.93;;
13295;SDS011;6716;51.086;-0.302;2022-10-26T11:55:07;20.13;;;5.38;;
13295;SDS011;6716;51.086;-0.302;2022-10-26T11:57:36;15.55;;;5.45;;
13295;SDS011;6716;51.086;-0.302;2022-10-26T12:00:04;14.20;;;4.90;;
13295;SDS011;6716;51.086;-0.302;2022-10-26T12:02:36;15.27;;;4.78;;
13295;SDS011;6716;51.086;-0.302;2022-10-26T12:07:31;19.90;;;5.00;;
13295;SDS011;6716;51.086;-0.302;2022-10-26T12:10:00;28.10;;;5.55;;
13295;SDS011;6716;51.086;-0.302;2022-10-26T12:18:02;17.20;;;4.53;;
13295;SDS011;6716;51.086;-0.302;2022-10-26T12:20:50;20.58;;;4.85;;
13295;SDS011;6716;51.086;-0.302;2022-10-26T12:23:29;10.60;;;3.38;;
13295;SDS011;6716;51.086;-0.302;2022-10-26T12:34:04;13.88;;;3.42;;
13295;SDS011;6716;51.086;-0.302;2022-10-26T12:39:30;16.48;;;3.78;;
13295;SDS011;6716;51.086;-0.302;2022-10-26T12:44:38;25.50;;;4.22;;
13295;SDS011;6716;51.086;-0.302;2022-10-26T12:52:55;12.13;;;2.40;;
13295;SDS011;6716;51.086;-0.302;2022-10-26T13:08:57;7.43;;;2.42;;
13295;SDS011;6716;51.086;-0.302;2022-10-26T13:11:36;16.20;;;3.15;;
13295;SDS011;6716;51.086;-0.302;2022-10-26T13:14:17;12.80;;;3.45;;
13295;SDS011;6716;51.086;-0.302;2022-10-26T13:16:52;15.30;;;3.10;;
13295;SDS011;6716;51.086;-0.302;2022-10-26T13:19:22;21.98;;;4.45;;
13295;SDS011;6716;51.086;-0.302;2022-10-26T13:21:57;12.70;;;3.22;;
13295;SDS011;6716;51.086;-0.302;2022-10-26T13:24:25;8.23;;;2.13;;
13295;SDS011;6716;51.086;-0.302;2022-10-26T13:29:32;9.75;;;2.70;;
13295;SDS011;6716;51.086;-0.302;2022-10-26T13:32:40;9.68;;;2.63;;
13295;SDS011;6716;51.086;-0.302;2022-10-26T13:35:12;10.52;;;3.00;;
13295;SDS011;6716;51.086;-0.302;2022-10-26T13:37:43;15.88;;;3.35;;
13295;SDS011;6716;51.086;-0.302;2022-10-26T13:40:32;8.02;;;2.67;;
13295;SDS011;6716;51.086;-0.302;2022-10-26T13:43:04;11.25;;;2.50;;
13295;SDS011;6716;51.086;-0.302;2022-10-26T13:45:44;12.02;;;2.65;;
13295;SDS011;6716;51.086;-0.302;2022-10-26T13:48:19;14.45;;;3.45;;
13295;SDS011;6716;51.086;-0.302;2022-10-26T13:50:54;15.73;;;3.30;;
13295;SDS011;6716;51.086;-0.302;2022-10-26T14:01:24;16.05;;;4.95;;
13295;SDS011;6716;51.086;-0.302;2022-10-26T14:03:52;27.75;;;6.47;;
13295;SDS011;6716;51.086;-0.302;2022-10-26T14:06:26;26.65;;;6.93;;
13295;SDS011;6716;51.086;-0.302;2022-10-26T14:08:57;28.92;;;7.45;;
13295;SDS011;6716;51.086;-0.302;2022-10-26T14:11:30;34.80;;;8.07;;
13295;SDS011;6716;51.086;-0.302;2022-10-26T14:14:02;36.17;;;9.43;;
13295;SDS011;6716;51.086;-0.302;2022-10-26T14:16:34;36.13;;;9.07;;
13295;SDS011;6716;51.086;-0.302;2022-10-26T14:19:00;33.53;;;9.65;;
13295;SDS011;6716;51.086;-0.302;2022-10-26T14:21:27;33.38;;;9.50;;
13295;SDS011;6716;51.086;-0.302;2022-10-26T14:23:55;35.83;;;9.77;;
13295;SDS011;6716;51.086;-0.302;2022-10-26T14:26:27;43.55;;;10.25;;
13295;SDS011;6716;51.086;-0.302;2022-10-26T14:28:59;44.08;;;10.35;;
13295;SDS011;6716;51.086;-0.302;2022-10-26T14:31:30;44.13;;;11.05;;
13295;SDS011;6716;51.086;-0.302;2022-10-26T14:33:57;49.55;;;11.25;;
13295;SDS011;6716;51.086;-0.302;2022-10-26T14:36:28;48.63;;;11.52;;
13295;SDS011;6716;51.086;-0.302;2022-10-26T14:39:21;60.70;;;13.05;;
13295;SDS011;6716;51.086;-0.302;2022-10-26T14:42:24;59.53;;;13.10;;
13295;SDS011;6716;51.086;-0.302;2022-10-26T14:44:55;56.40;;;13.73;;
13295;SDS011;6716;51.086;-0.302;2022-10-26T14:47:25;54.28;;;13.55;;
13295;SDS011;6716;51.086;-0.302;2022-10-26T14:50:02;48.60;;;11.77;;
13295;SDS011;6716;51.086;-0.302;2022-10-26T14:52:30;50.67;;;12.15;;
13295;SDS011;6716;51.086;-0.302;2022-10-26T14:55:00;46.08;;;12.10;;
13295;SDS011;6716;51.086;-0.302;2022-10-26T14:57:38;56.10;;;12.88;;
13295;SDS011;6716;51.086;-0.302;2022-10-26T15:02:45;62.20;;;14.10;;
13295;SDS011;6716;51.086;-0.302;2022-10-26T15:05:20;58.67;;;12.88;;
13295;SDS011;6716;51.086;-0.302;2022-10-26T15:07:53;54.65;;;12.48;;
13295;SDS011;6716;51.086;-0.302;2022-10-26T15:15:46;64.95;;;13.75;;
13295;SDS011;6716;51.086;-0.302;2022-10-26T15:18:20;54.15;;;13.27;;
13295;SDS011;6716;51.086;-0.302;2022-10-26T15:20:50;50.00;;;11.48;;
13295;SDS011;6716;51.086;-0.302;2022-10-26T15:23:17;55.92;;;12.38;;
13295;SDS011;6716;51.086;-0.302;2022-10-26T15:25:52;52.70;;;11.80;;
13295;SDS011;6716;51.086;-0.302;2022-10-26T15:28:30;48.22;;;10.63;;
13295;SDS011;6716;51.086;-0.302;2022-10-26T15:33:39;41.28;;;9.82;;
13295;SDS011;6716;51.086;-0.302;2022-10-26T15:38:37;37.72;;;9.05;;
13295;SDS011;6716;51.086;-0.302;2022-10-26T15:41:03;42.63;;;9.20;;
13295;SDS011;6716;51.086;-0.302;2022-10-26T15:43:35;40.22;;;9.55;;
13295;SDS011;6716;51.086;-0.302;2022-10-26T15:46:02;38.88;;;9.63;;
13295;SDS011;6716;51.086;-0.302;2022-10-26T15:48:29;42.80;;;9.38;;
13295;SDS011;6716;51.086;-0.302;2022-10-26T15:50:58;39.13;;;9.07;;
13295;SDS011;6716;51.086;-0.302;2022-10-26T15:53:27;46.53;;;8.88;;
13295;SDS011;6716;51.086;-0.302;2022-10-26T15:55:57;35.45;;;8.35;;
13295;SDS011;6716;51.086;-0.302;2022-10-26T15:58:25;42.97;;;9.40;;
13295;SDS011;6716;51.086;-0.302;2022-10-26T16:00:52;42.10;;;9.48;;
13295;SDS011;6716;51.086;-0.302;2022-10-26T16:03:22;39.65;;;9.45;;
13295;SDS011;6716;51.086;-0.302;2022-10-26T16:05:52;37.40;;;8.27;;
13295;SDS011;6716;51.086;-0.302;2022-10-26T16:08:21;41.30;;;9.00;;
13295;SDS011;6716;51.086;-0.302;2022-10-26T16:10:48;37.25;;;8.50;;
13295;SDS011;6716;51.086;-0.302;2022-10-26T16:13:15;48.47;;;9.70;;
13295;SDS011;6716;51.086;-0.302;2022-10-26T16:15:41;46.33;;;9.30;;
13295;SDS011;6716;51.086;-0.302;2022-10-26T16:18:07;44.88;;;9.77;;
13295;SDS011;6716;51.086;-0.302;2022-10-26T16:20:33;49.42;;;11.05;;
13295;SDS011;6716;51.086;-0.302;2022-10-26T16:23:00;42.70;;;9.60;;
13295;SDS011;6716;51.086;-0.302;2022-10-26T16:25:31;37.47;;;9.77;;
13295;SDS011;6716;51.086;-0.302;2022-10-26T16:27:59;46.28;;;9.50;;
13295;SDS011;6716;51.086;-0.302;2022-10-26T16:30:27;45.28;;;9.27;;
13295;SDS011;6716;51.086;-0.302;2022-10-26T16:32:54;39.10;;;9.25;;
13295;SDS011;6716;51.086;-0.302;2022-10-26T16:35:20;40.63;;;9.05;;
13295;SDS011;6716;51.086;-0.302;2022-10-26T16:37:46;41.97;;;9.25;;
13295;SDS011;6716;51.086;-0.302;2022-10-26T16:40:12;42.60;;;8.13;;
13295;SDS011;6716;51.086;-0.302;2022-10-26T16:42:38;39.65;;;9.07;;
13295;SDS011;6716;51.086;-0.302;2022-10-26T16:45:11;42.35;;;8.07;;
13295;SDS011;6716;51.086;-0.302;2022-10-26T16:47:38;40.55;;;8.75;;
13295;SDS011;6716;51.086;-0.302;2022-10-26T16:50:05;34.63;;;8.20;;
13295;SDS011;6716;51.086;-0.302;2022-10-26T16:52:33;41.15;;;8.00;;
13295;SDS011;6716;51.086;-0.302;2022-10-26T16:55:00;39.90;;;8.35;;
13295;SDS011;6716;51.086;-0.302;2022-10-26T16:57:26;35.08;;;8.23;;
13295;SDS011;6716;51.086;-0.302;2022-10-26T16:59:52;37.67;;;7.15;;
13295;SDS011;6716;51.086;-0.302;2022-10-26T17:02:21;38.13;;;8.57;;
13295;SDS011;6716;51.086;-0.302;2022-10-26T17:04:47;46.08;;;8.55;;
13295;SDS011;6716;51.086;-0.302;2022-10-26T17:07:13;37.53;;;8.32;;
13295;SDS011;6716;51.086;-0.302;2022-10-26T17:09:41;35.17;;;8.07;;
13295;SDS011;6716;51.086;-0.302;2022-10-26T17:12:07;38.45;;;7.88;;
13295;SDS011;6716;51.086;-0.302;2022-10-26T17:14:35;36.83;;;8.13;;
13295;SDS011;6716;51.086;-0.302;2022-10-26T17:17:02;39.05;;;8.07;;
13295;SDS011;6716;51.086;-0.302;2022-10-26T17:19:28;33.35;;;7.95;;
13295;SDS011;6716;51.086;-0.302;2022-10-26T17:21:54;42.42;;;8.00;;
13295;SDS011;6716;51.086;-0.302;2022-10-26T17:24:20;40.33;;;7.93;;
13295;SDS011;6716;51.086;-0.302;2022-10-26T17:26:47;37.00;;;8.07;;
13295;SDS011;6716;51.086;-0.302;2022-10-26T17:29:13;44.60;;;9.13;;
13295;SDS011;6716;51.086;-0.302;2022-10-26T17:31:39;40.13;;;8.35;;
13295;SDS011;6716;51.086;-0.302;2022-10-26T17:34:05;44.33;;;8.98;;
13295;SDS011;6716;51.086;-0.302;2022-10-26T17:36:31;46.50;;;8.82;;
13295;SDS011;6716;51.086;-0.302;2022-10-26T17:38:57;43.47;;;8.65;;
13295;SDS011;6716;51.086;-0.302;2022-10-26T17:41:25;45.03;;;8.93;;